Time;durP1;ratioP1;P1;durP2;ratioP2;P2;SDS_P1;SDS_P2;PMS_P1;PMS_P2;Temp;Humidity;BMP_temperature;BMP_pressure;BME280_temperature;BME280_humidity;BME280_pressure;Samples;Min_cycle;Max_cycle;Signal;HPM_P1;HPM_P2
2023/06/09 00:02:07;;;;;;;16.60;4.60;;;16.80;99.90;;;;;;4951799;28;20031;-72
2023/06/09 00:04:35;;;;;;;15.02;4.63;;;16.80;99.90;;;;;;4944187;28;20255;-72
2023/06/09 00:07:02;;;;;;;17.33;4.75;;;16.80;99.90;;;;;;4949471;28;20026;-72
2023/06/09 00:09:31;;;;;;;13.77;4.35;;;16.80;99.90;;;;;;4950026;28;20442;-72
2023/06/09 00:11:57;;;;;;;16.23;4.80;;;16.70;99.90;;;;;;4950040;29;20097;-71
2023/06/09 00:14:23;;;;;;;17.73;4.30;;;16.70;99.90;;;;;;4948950;28;20023;-71
2023/06/09 00:16:49;;;;;;;18.23;4.72;;;16.70;99.90;;;;;;4950355;29;20423;-72
2023/06/09 00:19:16;;;;;;;15.68;4.72;;;16.70;99.90;;;;;;4952958;28;20474;-71
2023/06/09 00:21:49;;;;;;;23.05;4.55;;;16.60;99.90;;;;;;4952883;28;20043;-71
2023/06/09 00:24:20;;;;;;;17.50;4.80;;;16.60;99.90;;;;;;4952645;28;20118;-72
2023/06/09 00:26:46;;;;;;;17.35;5.00;;;16.50;99.90;;;;;;4952423;28;20070;-72
2023/06/09 00:29:12;;;;;;;16.55;5.03;;;16.50;99.90;;;;;;4952733;28;20509;-72
2023/06/09 00:31:39;;;;;;;15.98;4.80;;;16.50;99.90;;;;;;4952404;28;20024;-72
2023/06/09 00:34:05;;;;;;;15.43;4.32;;;16.50;99.90;;;;;;4943219;28;20490;-72
2023/06/09 00:36:30;;;;;;;13.95;4.90;;;16.40;99.90;;;;;;4952576;28;20023;-73
2023/06/09 00:38:56;;;;;;;19.08;4.80;;;16.40;99.90;;;;;;4952318;28;20103;-73
2023/06/09 00:41:21;;;;;;;14.77;4.53;;;16.40;99.90;;;;;;4952575;28;20043;-73
2023/06/09 00:43:50;;;;;;;15.13;4.35;;;16.40;99.90;;;;;;4952401;28;20379;-71
2023/06/09 00:46:16;;;;;;;15.30;4.30;;;16.30;99.90;;;;;;4952116;28;20019;-72
2023/06/09 00:48:43;;;;;;;14.32;4.65;;;16.30;99.90;;;;;;4944225;28;20051;-72
2023/06/09 00:51:10;;;;;;;16.45;4.78;;;16.30;99.90;;;;;;4947599;29;20019;-72
2023/06/09 00:53:36;;;;;;;18.27;4.85;;;16.30;99.90;;;;;;4951488;28;20494;-72
2023/06/09 00:56:01;;;;;;;13.48;4.45;;;16.30;99.90;;;;;;4952002;28;20074;-72
2023/06/09 00:58:27;;;;;;;20.27;5.25;;;16.20;99.90;;;;;;4950545;28;20027;-72
2023/06/09 01:00:53;;;;;;;17.98;5.10;;;16.20;99.90;;;;;;4949597;29;20033;-72
2023/06/09 01:03:19;;;;;;;16.70;4.65;;;16.20;99.90;;;;;;4951995;28;20463;-72
2023/06/09 01:05:48;;;;;;;16.25;4.90;;;16.20;99.90;;;;;;4942822;29;20051;-72
2023/06/09 01:08:30;;;;;;;13.77;4.80;;;16.20;99.90;;;;;;4955314;28;20041;-72
2023/06/09 01:11:25;;;;;;;18.20;4.85;;;16.10;99.90;;;;;;4954086;28;20431;-72
2023/06/09 01:14:18;;;;;;;17.98;4.72;;;16.10;99.90;;;;;;4956272;28;20027;-71
2023/06/09 01:16:57;;;;;;;16.25;5.20;;;16.10;99.90;;;;;;4954524;28;20328;-72
2023/06/09 01:19:31;;;;;;;17.88;4.75;;;16.00;99.90;;;;;;4958695;28;20031;-72
2023/06/09 01:22:06;;;;;;;13.43;5.05;;;16.00;99.90;;;;;;4958489;28;20447;-72
2023/06/09 01:24:32;;;;;;;16.15;5.10;;;16.00;99.90;;;;;;4958835;28;20461;-72
2023/06/09 01:27:01;;;;;;;15.90;5.05;;;16.00;99.90;;;;;;4957300;28;20481;-72
2023/06/09 01:29:32;;;;;;;17.92;5.13;;;16.00;99.90;;;;;;4958494;28;20023;-72
2023/06/09 01:32:00;;;;;;;15.63;5.15;;;15.90;99.90;;;;;;4958654;28;20035;-72
2023/06/09 01:34:26;;;;;;;15.95;4.90;;;15.90;99.90;;;;;;4957589;28;20023;-72
2023/06/09 01:36:52;;;;;;;11.63;4.35;;;15.90;99.90;;;;;;4958511;28;20470;-72
2023/06/09 01:39:18;;;;;;;17.23;5.03;;;15.80;99.90;;;;;;4958229;28;20181;-73
2023/06/09 01:41:44;;;;;;;18.38;5.25;;;15.90;99.90;;;;;;4957869;28;20434;-73
2023/06/09 01:44:10;;;;;;;13.73;4.88;;;15.80;99.90;;;;;;4958266;28;20035;-73
2023/06/09 01:46:37;;;;;;;16.65;5.40;;;15.80;99.90;;;;;;4957822;28;20028;-72
2023/06/09 01:49:34;;;;;;;19.48;5.70;;;15.80;99.90;;;;;;4958603;28;20042;-72
2023/06/09 01:52:11;;;;;;;16.50;4.60;;;15.80;99.90;;;;;;4955270;28;20074;-72
2023/06/09 01:55:09;;;;;;;14.73;4.78;;;15.80;99.90;;;;;;4956512;28;20038;-72
2023/06/09 01:57:49;;;;;;;13.48;5.05;;;15.80;99.90;;;;;;4952367;28;20058;-72
2023/06/09 02:00:15;;;;;;;15.60;4.93;;;15.80;99.90;;;;;;4957757;28;20054;-71
2023/06/09 02:02:43;;;;;;;17.25;5.35;;;15.80;99.90;;;;;;4958528;28;20482;-72
2023/06/09 02:05:12;;;;;;;18.45;5.32;;;15.70;99.90;;;;;;4956946;28;20055;-72
2023/06/09 02:07:39;;;;;;;19.73;5.43;;;15.80;99.90;;;;;;4954805;29;20043;-72
2023/06/09 02:10:06;;;;;;;14.85;5.13;;;15.70;99.90;;;;;;4954844;28;20027;-72
2023/06/09 02:12:34;;;;;;;14.18;5.05;;;15.70;99.90;;;;;;4955460;28;20047;-72
2023/06/09 02:15:01;;;;;;;14.20;5.90;;;15.70;99.90;;;;;;4956817;28;20058;-72
2023/06/09 02:17:32;;;;;;;15.88;5.72;;;15.70;99.90;;;;;;4956174;28;20019;-72
2023/06/09 02:19:58;;;;;;;18.08;5.20;;;15.60;99.90;;;;;;4954865;28;20027;-73
2023/06/09 02:22:24;;;;;;;17.00;5.20;;;15.60;99.90;;;;;;4954503;28;20027;-73
2023/06/09 02:24:50;;;;;;;17.88;5.38;;;15.60;99.90;;;;;;4955208;28;20019;-73
2023/06/09 02:27:16;;;;;;;14.30;5.05;;;15.60;99.90;;;;;;4952973;28;20075;-72
2023/06/09 02:29:41;;;;;;;13.18;5.10;;;15.50;99.90;;;;;;4954418;28;20059;-73
2023/06/09 02:32:07;;;;;;;13.50;5.53;;;15.60;99.90;;;;;;4953476;28;20031;-73
2023/06/09 02:34:34;;;;;;;20.98;6.05;;;15.60;99.90;;;;;;4950783;29;20455;-73
2023/06/09 02:37:02;;;;;;;19.33;5.22;;;15.60;99.90;;;;;;4940322;29;20019;-72
2023/06/09 02:39:27;;;;;;;19.42;6.20;;;15.50;99.90;;;;;;4947837;29;20035;-72
2023/06/09 02:41:53;;;;;;;12.55;5.28;;;15.50;99.90;;;;;;4954276;28;20039;-73
2023/06/09 02:44:19;;;;;;;17.50;5.47;;;15.50;99.90;;;;;;4953214;28;20030;-73
2023/06/09 02:46:44;;;;;;;14.30;5.35;;;15.50;99.90;;;;;;4950119;29;20427;-71
2023/06/09 02:49:11;;;;;;;16.17;5.53;;;15.50;99.90;;;;;;4949086;28;20099;-71
2023/06/09 02:51:37;;;;;;;12.68;5.40;;;15.50;99.90;;;;;;4954994;28;20142;-72
2023/06/09 02:54:03;;;;;;;14.32;5.00;;;15.40;99.90;;;;;;4949301;28;20035;-71
2023/06/09 02:56:29;;;;;;;15.35;5.50;;;15.40;99.90;;;;;;4954032;28;20039;-72
2023/06/09 02:58:54;;;;;;;13.05;4.88;;;15.40;99.90;;;;;;4954265;28;20382;-72
2023/06/09 03:01:20;;;;;;;13.13;5.53;;;15.30;99.90;;;;;;4953685;28;20041;-72
2023/06/09 03:03:47;;;;;;;13.82;5.10;;;15.30;99.90;;;;;;4952038;28;20038;-73
2023/06/09 03:06:13;;;;;;;12.73;5.05;;;15.30;99.90;;;;;;4949005;28;20059;-72
2023/06/09 03:08:40;;;;;;;16.45;5.18;;;15.30;99.90;;;;;;4948583;28;20027;-73
2023/06/09 03:11:05;;;;;;;11.93;4.78;;;15.30;99.90;;;;;;4948806;28;20037;-72
2023/06/09 03:13:31;;;;;;;13.60;5.25;;;15.20;99.90;;;;;;4952207;28;20110;-72
2023/06/09 03:15:57;;;;;;;15.00;5.25;;;15.20;99.90;;;;;;4953266;28;20059;-72
2023/06/09 03:18:22;;;;;;;16.38;5.22;;;15.20;99.90;;;;;;4951705;28;20031;-72
2023/06/09 03:20:50;;;;;;;13.82;5.57;;;15.20;99.90;;;;;;4950065;28;20530;-72
2023/06/09 03:23:17;;;;;;;16.48;5.60;;;15.20;99.90;;;;;;4953560;28;20023;-72
2023/06/09 03:25:42;;;;;;;17.73;5.28;;;15.10;99.90;;;;;;4955572;29;20041;-71
2023/06/09 03:28:08;;;;;;;13.27;5.43;;;15.10;99.90;;;;;;4957562;28;20055;-72
2023/06/09 03:30:34;;;;;;;17.58;5.10;;;15.10;99.90;;;;;;4949035;28;20410;-72
2023/06/09 03:33:00;;;;;;;12.98;5.10;;;15.10;99.90;;;;;;4947675;29;20437;-71
2023/06/09 03:35:26;;;;;;;18.80;5.30;;;15.10;99.90;;;;;;4953828;28;20019;-72
2023/06/09 03:37:51;;;;;;;14.77;5.22;;;15.10;99.90;;;;;;4953436;28;20034;-72
2023/06/09 03:40:17;;;;;;;14.52;5.28;;;15.10;99.90;;;;;;4941984;29;20684;-73
2023/06/09 03:42:43;;;;;;;16.63;5.28;;;15.10;99.90;;;;;;4953674;28;20043;-71
2023/06/09 03:45:09;;;;;;;13.65;5.10;;;15.10;99.90;;;;;;4953757;28;20095;-72
2023/06/09 03:47:35;;;;;;;15.55;4.53;;;15.00;99.90;;;;;;4953834;28;20050;-72
2023/06/09 03:50:00;;;;;;;16.25;5.00;;;15.00;99.90;;;;;;4953984;28;20516;-72
2023/06/09 03:52:27;;;;;;;13.50;5.20;;;15.00;99.90;;;;;;4953352;28;20102;-72
2023/06/09 03:54:52;;;;;;;14.80;5.30;;;15.00;99.90;;;;;;4953284;28;20381;-72
2023/06/09 03:57:18;;;;;;;12.63;5.07;;;15.00;99.90;;;;;;4953273;28;20501;-72
2023/06/09 03:59:44;;;;;;;12.55;4.75;;;15.00;99.90;;;;;;4952180;28;20031;-72
2023/06/09 04:02:09;;;;;;;12.30;4.85;;;15.00;99.90;;;;;;4953317;28;20034;-72
2023/06/09 04:04:35;;;;;;;11.50;4.60;;;15.00;99.90;;;;;;4953653;28;20074;-72
2023/06/09 04:07:01;;;;;;;11.85;4.72;;;15.00;99.90;;;;;;4953131;28;20027;-72
2023/06/09 04:09:27;;;;;;;15.43;4.90;;;15.00;99.90;;;;;;4953633;28;20027;-72
2023/06/09 04:11:53;;;;;;;11.35;4.55;;;15.00;99.90;;;;;;4953378;28;20138;-72
2023/06/09 04:14:18;;;;;;;14.52;4.88;;;14.90;99.90;;;;;;4941632;29;20098;-71
2023/06/09 04:16:45;;;;;;;12.32;5.07;;;14.90;99.90;;;;;;4953339;28;20094;-71
2023/06/09 04:19:10;;;;;;;18.73;5.35;;;14.90;99.90;;;;;;4953289;28;20379;-72
2023/06/09 04:21:37;;;;;;;15.38;5.13;;;14.90;99.90;;;;;;4952811;28;20031;-72
2023/06/09 04:24:03;;;;;;;17.48;5.50;;;14.90;99.90;;;;;;4953055;28;20027;-71
2023/06/09 04:26:29;;;;;;;14.48;5.00;;;14.90;99.90;;;;;;4952969;28;20413;-72
2023/06/09 04:28:55;;;;;;;14.88;4.80;;;14.90;99.90;;;;;;4953262;28;20121;-71
2023/06/09 04:31:23;;;;;;;12.63;5.03;;;14.90;99.90;;;;;;4952673;28;20634;-72
2023/06/09 04:33:51;;;;;;;14.70;4.93;;;14.90;99.90;;;;;;4944529;28;20031;-73
2023/06/09 04:36:17;;;;;;;13.32;4.65;;;14.90;99.90;;;;;;4951572;29;20150;-73
2023/06/09 04:38:45;;;;;;;16.38;5.20;;;14.90;99.90;;;;;;4953238;28;20031;-72
2023/06/09 04:41:11;;;;;;;10.93;4.78;;;14.90;99.90;;;;;;4952375;28;20026;-73
2023/06/09 04:43:39;;;;;;;13.32;4.95;;;14.90;99.90;;;;;;4952326;28;20209;-72
2023/06/09 04:46:05;;;;;;;14.55;5.25;;;14.90;99.90;;;;;;4952573;28;20106;-72
2023/06/09 04:48:33;;;;;;;14.48;5.05;;;15.00;99.90;;;;;;4952559;28;20016;-72
2023/06/09 04:51:01;;;;;;;16.40;5.28;;;15.00;99.90;;;;;;4952296;28;20394;-70
2023/06/09 04:53:30;;;;;;;12.70;5.03;;;15.00;99.90;;;;;;4952203;28;20500;-72
2023/06/09 04:55:56;;;;;;;12.38;5.30;;;15.00;99.90;;;;;;4952260;29;20022;-72
2023/06/09 04:58:23;;;;;;;18.98;5.60;;;15.00;99.90;;;;;;4952046;28;20111;-72
2023/06/09 05:00:50;;;;;;;13.27;5.85;;;15.00;99.90;;;;;;4952232;28;20019;-72
2023/06/09 05:03:17;;;;;;;17.33;5.35;;;15.00;99.90;;;;;;4949606;28;20031;-72
2023/06/09 05:05:43;;;;;;;13.43;4.93;;;15.10;99.90;;;;;;4951128;28;20043;-72
2023/06/09 05:08:09;;;;;;;15.60;6.03;;;15.10;99.90;;;;;;4952939;28;20037;-72
2023/06/09 05:10:35;;;;;;;17.70;5.97;;;15.10;99.90;;;;;;4951828;28;20019;-72
2023/06/09 05:13:01;;;;;;;16.13;6.90;;;15.10;99.90;;;;;;4952001;28;20094;-72
2023/06/09 05:15:27;;;;;;;18.25;6.10;;;15.10;99.90;;;;;;4952183;28;20110;-72
2023/06/09 05:17:53;;;;;;;16.50;5.90;;;15.10;99.90;;;;;;4952707;28;20110;-72
2023/06/09 05:20:19;;;;;;;17.63;5.90;;;15.10;99.90;;;;;;4952078;28;20063;-72
2023/06/09 05:22:45;;;;;;;15.82;5.88;;;15.20;99.90;;;;;;4952990;28;20068;-72
2023/06/09 05:25:16;;;;;;;17.55;5.47;;;15.20;99.90;;;;;;4952308;28;20035;-72
2023/06/09 05:27:41;;;;;;;22.20;6.20;;;15.20;99.90;;;;;;4952409;28;20035;-71
2023/06/09 05:30:07;;;;;;;18.10;6.20;;;15.30;99.90;;;;;;4952754;28;20079;-71
2023/06/09 05:32:33;;;;;;;18.15;5.88;;;15.20;99.90;;;;;;4952800;28;20041;-71
2023/06/09 05:35:00;;;;;;;13.63;5.70;;;15.30;99.90;;;;;;4947198;29;20601;-72
2023/06/09 05:37:25;;;;;;;14.35;5.60;;;15.30;99.90;;;;;;4952349;28;20077;-72
2023/06/09 05:39:51;;;;;;;19.05;7.10;;;15.30;99.90;;;;;;4951714;28;20434;-72
2023/06/09 05:42:17;;;;;;;20.30;6.20;;;15.40;99.90;;;;;;4951699;28;20031;-72
2023/06/09 05:44:42;;;;;;;16.00;6.47;;;15.50;99.90;;;;;;4952220;28;20474;-72
2023/06/09 05:47:08;;;;;;;19.65;6.60;;;15.40;99.90;;;;;;4950958;29;20162;-72
2023/06/09 05:49:34;;;;;;;20.95;6.50;;;15.50;99.90;;;;;;4950159;28;20077;-73
2023/06/09 05:52:00;;;;;;;18.77;6.60;;;15.50;99.90;;;;;;4951670;28;20031;-72
2023/06/09 05:54:26;;;;;;;18.60;6.35;;;15.50;99.90;;;;;;4953366;28;20083;-71
2023/06/09 05:56:53;;;;;;;17.23;6.38;;;15.50;99.90;;;;;;4953444;29;20035;-72
2023/06/09 05:59:23;;;;;;;17.80;6.40;;;15.60;99.90;;;;;;4956347;28;20107;-71
2023/06/09 06:01:49;;;;;;;15.75;6.35;;;15.60;99.90;;;;;;4954904;28;20041;-72
2023/06/09 06:04:14;;;;;;;21.17;6.57;;;15.70;99.90;;;;;;4955566;28;20130;-71
2023/06/09 06:06:40;;;;;;;16.77;6.80;;;15.70;99.90;;;;;;4955839;29;20059;-71
2023/06/09 06:09:06;;;;;;;18.50;6.70;;;15.80;99.90;;;;;;4955371;28;20019;-71
2023/06/09 06:11:32;;;;;;;19.83;7.65;;;15.80;99.90;;;;;;4955816;28;20066;-72
2023/06/09 06:13:57;;;;;;;16.00;7.05;;;15.80;99.90;;;;;;4955445;28;20374;-72
2023/06/09 06:16:23;;;;;;;15.55;5.88;;;15.80;99.90;;;;;;4956220;28;20245;-71
2023/06/09 06:18:49;;;;;;;14.77;6.43;;;15.90;99.90;;;;;;4953659;28;20054;-71
2023/06/09 06:21:14;;;;;;;20.80;7.05;;;16.00;99.90;;;;;;4955695;28;20019;-71
2023/06/09 06:23:40;;;;;;;20.63;6.90;;;16.00;99.90;;;;;;4954672;28;20031;-72
2023/06/09 06:26:06;;;;;;;21.48;7.22;;;16.10;99.90;;;;;;4955292;29;20687;-72
2023/06/09 06:28:31;;;;;;;21.98;7.40;;;16.20;99.90;;;;;;4956272;28;20034;-71
2023/06/09 06:30:57;;;;;;;19.17;7.00;;;16.30;99.90;;;;;;4954787;28;20485;-71
2023/06/09 06:33:23;;;;;;;22.85;7.10;;;16.40;99.90;;;;;;4954548;28;20055;-72
2023/06/09 06:35:49;;;;;;;20.08;7.97;;;16.40;99.90;;;;;;4955032;28;20023;-72
2023/06/09 06:38:15;;;;;;;17.98;7.32;;;16.50;99.90;;;;;;4954684;28;20030;-71
2023/06/09 06:40:44;;;;;;;20.33;7.70;;;16.60;99.90;;;;;;4954322;28;20032;-72
2023/06/09 06:43:10;;;;;;;17.40;7.40;;;16.80;99.90;;;;;;4954390;28;20032;-72
2023/06/09 06:45:36;;;;;;;20.42;7.15;;;16.90;99.90;;;;;;4954792;28;20031;-72
2023/06/09 06:48:01;;;;;;;18.25;7.95;;;16.90;99.90;;;;;;4954905;28;20023;-72
2023/06/09 06:50:27;;;;;;;19.77;7.97;;;17.10;99.90;;;;;;4954990;28;20386;-72
2023/06/09 06:52:53;;;;;;;20.83;7.40;;;17.20;99.90;;;;;;4954914;28;20477;-72
2023/06/09 06:55:18;;;;;;;18.92;7.43;;;17.30;99.90;;;;;;4948447;29;20449;-74
2023/06/09 06:57:44;;;;;;;18.65;7.75;;;17.40;99.90;;;;;;4956099;29;20032;-74
2023/06/09 07:00:13;;;;;;;16.30;7.25;;;17.60;99.90;;;;;;4955834;28;20004;-73
2023/06/09 07:02:39;;;;;;;19.15;7.60;;;17.70;99.90;;;;;;4955366;28;20491;-73
2023/06/09 07:05:08;;;;;;;19.60;8.07;;;17.80;99.90;;;;;;4953596;28;20047;-73
2023/06/09 07:07:34;;;;;;;16.60;7.93;;;18.00;99.90;;;;;;4954004;28;20181;-72
2023/06/09 07:10:01;;;;;;;17.88;7.78;;;18.10;99.90;;;;;;4954327;28;20102;-73
2023/06/09 07:12:26;;;;;;;19.77;8.50;;;18.30;99.90;;;;;;4953966;28;20026;-73
2023/06/09 07:14:52;;;;;;;18.67;8.32;;;18.40;99.90;;;;;;4954345;28;20390;-73
2023/06/09 07:17:17;;;;;;;19.17;8.10;;;18.60;99.90;;;;;;4954978;28;20027;-73
2023/06/09 07:19:43;;;;;;;20.95;8.15;;;18.80;99.90;;;;;;4954380;28;20184;-72
2023/06/09 07:22:09;;;;;;;24.00;9.07;;;18.90;99.90;;;;;;4954571;28;20035;-74
2023/06/09 07:24:35;;;;;;;16.95;8.48;;;19.10;99.90;;;;;;4952217;28;20016;-76
2023/06/09 07:27:01;;;;;;;18.42;8.02;;;19.20;99.90;;;;;;4947439;29;20109;-74
2023/06/09 07:29:27;;;;;;;21.83;8.23;;;19.40;99.90;;;;;;4954463;28;20027;-75
2023/06/09 07:31:52;;;;;;;20.70;7.93;;;19.50;99.90;;;;;;4951345;29;20132;-73
2023/06/09 07:34:18;;;;;;;17.00;7.97;;;19.70;99.90;;;;;;4950763;29;20330;-72
2023/06/09 07:36:50;;;;;;;18.67;8.27;;;19.80;99.90;;;;;;4953798;28;20086;-73
2023/06/09 07:39:16;;;;;;;19.92;8.65;;;20.00;99.90;;;;;;4954788;28;20053;-74
2023/06/09 07:41:42;;;;;;;21.52;8.68;;;20.10;99.90;;;;;;4954175;28;20039;-73
2023/06/09 07:44:08;;;;;;;21.50;8.43;;;20.30;99.90;;;;;;4954493;28;20062;-73
2023/06/09 07:46:34;;;;;;;19.80;8.35;;;20.40;99.90;;;;;;4950456;29;20035;-73
2023/06/09 07:48:59;;;;;;;19.92;7.82;;;20.50;99.90;;;;;;4952328;29;20035;-74
2023/06/09 07:51:26;;;;;;;20.65;8.63;;;20.70;99.90;;;;;;4953922;28;20027;-74
2023/06/09 07:53:52;;;;;;;15.88;8.88;;;20.80;99.90;;;;;;4954393;28;20023;-74
2023/06/09 07:56:17;;;;;;;19.63;8.55;;;20.90;99.90;;;;;;4954597;28;20064;-75
2023/06/09 07:58:43;;;;;;;18.88;8.75;;;21.10;99.90;;;;;;4955030;28;20031;-75
2023/06/09 08:01:09;;;;;;;18.52;8.82;;;21.20;99.90;;;;;;4955532;28;20483;-74
2023/06/09 08:03:35;;;;;;;18.90;8.70;;;21.40;99.90;;;;;;4956130;28;20031;-75
2023/06/09 08:06:02;;;;;;;22.52;9.77;;;21.50;99.90;;;;;;4953752;28;20081;-74
2023/06/09 08:08:31;;;;;;;21.45;9.50;;;21.70;99.90;;;;;;4953703;28;20035;-74
2023/06/09 08:10:57;;;;;;;18.52;9.40;;;21.80;99.90;;;;;;4953986;28;20386;-73
2023/06/09 08:13:24;;;;;;;21.60;9.18;;;22.00;99.90;;;;;;4955121;28;20486;-73
2023/06/09 08:15:50;;;;;;;18.85;9.18;;;22.10;99.90;;;;;;4952012;28;20031;-74
2023/06/09 08:18:16;;;;;;;18.83;8.77;;;22.30;99.90;;;;;;4945591;28;20078;-73
2023/06/09 08:20:42;;;;;;;20.75;8.70;;;22.50;99.90;;;;;;4953756;28;20031;-73
2023/06/09 08:23:08;;;;;;;21.33;9.48;;;22.60;99.90;;;;;;4953455;28;20091;-73
2023/06/09 08:25:37;;;;;;;20.85;9.45;;;22.80;99.90;;;;;;4952990;28;20031;-73
2023/06/09 08:28:02;;;;;;;20.40;9.48;;;22.90;99.90;;;;;;4941214;29;20490;-72
2023/06/09 08:30:28;;;;;;;21.77;10.23;;;23.10;99.90;;;;;;4953007;28;20034;-73
2023/06/09 08:32:54;;;;;;;16.33;10.00;;;23.20;99.90;;;;;;4952628;28;20042;-74
2023/06/09 08:35:21;;;;;;;20.52;9.20;;;23.30;99.90;;;;;;4952686;28;20098;-74
2023/06/09 08:37:47;;;;;;;22.35;9.85;;;23.30;99.90;;;;;;4953251;28;20027;-74
2023/06/09 08:40:13;;;;;;;20.08;8.75;;;23.30;99.90;;;;;;4948021;28;20043;-73
2023/06/09 08:42:39;;;;;;;16.27;9.00;;;23.50;99.90;;;;;;4947055;29;20077;-73
2023/06/09 08:45:05;;;;;;;18.30;8.95;;;23.60;99.90;;;;;;4950306;29;20023;-73
2023/06/09 08:47:33;;;;;;;21.83;10.55;;;23.80;99.90;;;;;;4953529;28;20525;-75
2023/06/09 08:49:59;;;;;;;17.08;10.13;;;24.00;99.90;;;;;;4954197;28;20019;-76
2023/06/09 08:52:28;;;;;;;17.50;9.35;;;24.10;99.90;;;;;;4954279;28;20387;-75
2023/06/09 08:54:56;;;;;;;26.10;9.98;;;24.10;99.90;;;;;;4954898;28;20055;-74
2023/06/09 08:57:22;;;;;;;20.17;8.98;;;24.20;99.90;;;;;;4953775;28;20078;-74
2023/06/09 08:59:48;;;;;;;19.80;9.50;;;24.40;99.90;;;;;;4953572;28;20027;-74
2023/06/09 09:02:14;;;;;;;18.95;10.00;;;24.60;99.90;;;;;;4954031;28;20047;-74
2023/06/09 09:04:40;;;;;;;17.88;9.27;;;24.80;99.90;;;;;;4954365;28;20047;-73
2023/06/09 09:07:08;;;;;;;17.20;10.13;;;24.90;99.90;;;;;;4945178;28;20058;-72
2023/06/09 09:09:34;;;;;;;19.58;8.98;;;25.00;99.90;;;;;;4954860;28;20023;-72
2023/06/09 09:12:01;;;;;;;18.08;9.60;;;25.10;99.90;;;;;;4952143;29;20043;-74
2023/06/09 09:14:27;;;;;;;19.27;9.75;;;25.30;99.70;;;;;;4952388;28;20058;-74
2023/06/09 09:16:53;;;;;;;17.42;9.73;;;25.50;99.20;;;;;;4952825;28;20486;-74
2023/06/09 09:19:26;;;;;;;24.48;9.90;;;25.60;98.40;;;;;;4953304;28;20422;-74
2023/06/09 09:21:56;;;;;;;19.33;10.57;;;25.60;98.10;;;;;;4943778;28;20043;-74
2023/06/09 09:24:32;;;;;;;16.95;9.57;;;25.80;97.40;;;;;;4951574;29;20030;-74
2023/06/09 09:26:57;;;;;;;20.73;10.05;;;25.80;96.90;;;;;;4952736;28;20027;-75
2023/06/09 09:29:28;;;;;;;17.45;9.40;;;25.80;96.90;;;;;;4954797;28;20019;-74
2023/06/09 09:31:58;;;;;;;16.83;9.43;;;25.90;96.80;;;;;;4957059;28;20457;-75
2023/06/09 09:34:26;;;;;;;20.48;10.00;;;26.00;96.30;;;;;;4956547;28;20133;-74
2023/06/09 09:36:55;;;;;;;17.65;9.77;;;26.20;95.90;;;;;;4956313;28;20031;-74
2023/06/09 09:39:24;;;;;;;18.98;10.07;;;26.30;95.50;;;;;;4955666;28;20031;-74
2023/06/09 09:42:09;;;;;;;21.52;10.15;;;26.50;95.10;;;;;;4954440;29;20486;-74
2023/06/09 09:44:51;;;;;;;19.73;9.75;;;26.60;94.50;;;;;;4954871;28;20059;-73
2023/06/09 09:47:18;;;;;;;18.70;10.13;;;26.80;94.20;;;;;;4956925;28;20023;-75
2023/06/09 09:49:52;;;;;;;17.15;9.35;;;26.90;93.60;;;;;;4956991;28;20070;-74
2023/06/09 09:52:26;;;;;;;22.30;9.30;;;27.10;93.10;;;;;;4946283;29;20485;-75
2023/06/09 09:54:58;;;;;;;20.55;10.48;;;27.20;93.00;;;;;;4957211;28;20039;-74
2023/06/09 09:57:28;;;;;;;19.33;10.13;;;27.40;92.50;;;;;;4956844;28;20031;-75
2023/06/09 09:59:55;;;;;;;20.48;10.38;;;27.40;91.70;;;;;;4958029;28;20440;-74
2023/06/09 10:02:24;;;;;;;21.77;9.52;;;27.50;91.40;;;;;;4956842;28;20082;-74
2023/06/09 10:04:51;;;;;;;19.50;10.43;;;27.60;91.10;;;;;;4952711;28;20042;-75
2023/06/09 10:07:24;;;;;;;17.23;9.02;;;27.60;90.50;;;;;;4955881;29;20406;-75
2023/06/09 10:09:53;;;;;;;17.25;8.90;;;27.70;90.40;;;;;;4957586;28;20403;-73
2023/06/09 10:12:19;;;;;;;26.38;11.20;;;27.80;90.20;;;;;;4949925;28;20023;-76
2023/06/09 10:14:47;;;;;;;17.20;9.82;;;27.90;88.70;;;;;;4950076;28;20031;-75
2023/06/09 10:17:13;;;;;;;21.23;11.00;;;27.80;88.10;;;;;;4942007;29;20090;-75
2023/06/09 10:19:40;;;;;;;18.02;9.10;;;27.80;88.10;;;;;;4958423;28;20023;-75
2023/06/09 10:22:06;;;;;;;23.63;10.43;;;28.00;88.30;;;;;;4954946;28;20023;-74
2023/06/09 10:24:33;;;;;;;20.60;9.05;;;28.20;87.20;;;;;;4954054;28;20034;-75
2023/06/09 10:27:00;;;;;;;17.80;10.45;;;28.30;86.40;;;;;;4955768;28;20221;-74
2023/06/09 10:29:27;;;;;;;20.88;10.93;;;28.50;85.20;;;;;;4956071;28;20106;-74
2023/06/09 10:31:55;;;;;;;19.80;11.18;;;28.60;83.90;;;;;;4955849;28;20035;-74
2023/06/09 10:34:21;;;;;;;22.33;11.43;;;28.60;82.80;;;;;;4955658;28;20074;-74
2023/06/09 10:36:53;;;;;;;17.40;10.40;;;28.50;81.60;;;;;;4955539;28;20031;-73
2023/06/09 10:39:22;;;;;;;19.67;11.38;;;28.40;81.30;;;;;;4953606;28;20070;-74
2023/06/09 10:42:10;;;;;;;18.38;9.05;;;28.40;81.20;;;;;;4952653;28;20044;-74
2023/06/09 10:44:51;;;;;;;19.00;10.82;;;28.50;81.20;;;;;;4948768;29;20032;-76
2023/06/09 10:47:55;;;;;;;17.98;9.07;;;28.60;81.20;;;;;;4952042;28;20517;-74
2023/06/09 10:50:30;;;;;;;17.80;9.45;;;28.70;81.40;;;;;;4959445;28;20018;-75
2023/06/09 10:52:57;;;;;;;15.55;9.43;;;28.70;81.10;;;;;;4973032;28;20031;-75
2023/06/09 10:55:24;;;;;;;21.08;11.00;;;28.80;81.00;;;;;;4961414;28;20490;-75
2023/06/09 10:57:55;;;;;;;17.92;9.75;;;28.90;80.00;;;;;;4953916;28;20039;-75
2023/06/09 11:00:21;;;;;;;17.58;10.95;;;29.00;79.80;;;;;;4954411;28;20034;-74
2023/06/09 11:02:52;;;;;;;18.92;10.40;;;29.20;78.70;;;;;;4954643;28;20027;-74
2023/06/09 11:05:20;;;;;;;16.10;10.80;;;29.20;78.30;;;;;;4954625;28;20106;-75
2023/06/09 11:08:03;;;;;;;19.63;10.45;;;29.20;78.00;;;;;;4953714;28;20031;-74
2023/06/09 11:10:28;;;;;;;20.20;10.45;;;29.30;77.40;;;;;;4953432;28;20031;-74
2023/06/09 11:12:55;;;;;;;17.13;9.45;;;29.40;77.60;;;;;;4954708;28;20086;-74
2023/06/09 11:15:21;;;;;;;14.88;9.88;;;29.50;77.40;;;;;;4954757;29;20102;-75
2023/06/09 11:17:53;;;;;;;17.00;10.20;;;29.70;76.70;;;;;;4954524;28;20059;-74
2023/06/09 11:20:23;;;;;;;16.90;10.18;;;29.80;75.60;;;;;;4954800;28;20336;-74
2023/06/09 11:22:52;;;;;;;13.82;9.27;;;29.90;74.70;;;;;;4948121;29;20030;-74
2023/06/09 11:25:17;;;;;;;14.75;9.32;;;29.90;74.30;;;;;;4946794;29;20102;-74
2023/06/09 11:27:45;;;;;;;14.55;9.07;;;29.80;74.70;;;;;;4952583;28;20114;-75
2023/06/09 11:30:18;;;;;;;15.77;8.70;;;29.90;75.20;;;;;;4954198;28;20027;-75
2023/06/09 11:32:48;;;;;;;18.15;9.00;;;30.00;74.30;;;;;;4954251;28;20023;-74
2023/06/09 11:35:29;;;;;;;17.85;9.20;;;30.20;73.20;;;;;;4952882;29;20474;-77
2023/06/09 11:38:03;;;;;;;16.42;8.75;;;30.30;72.00;;;;;;4955136;28;20569;-76
2023/06/09 11:40:31;;;;;;;21.70;9.52;;;30.30;70.70;;;;;;4954311;28;20020;-78
2023/06/09 11:42:58;;;;;;;17.17;9.98;;;30.30;70.50;;;;;;4955515;28;20038;-76
2023/06/09 11:45:31;;;;;;;16.80;8.57;;;30.30;70.30;;;;;;4943915;29;20131;-76
2023/06/09 11:47:59;;;;;;;17.27;7.97;;;30.20;69.60;;;;;;4954749;28;20024;-75
2023/06/09 11:50:27;;;;;;;34.60;10.10;;;30.10;69.50;;;;;;4954098;28;20323;-74
2023/06/09 11:53:15;;;;;;;17.88;8.52;;;30.10;68.70;;;;;;4953990;28;20082;-74
2023/06/09 11:55:41;;;;;;;38.85;8.95;;;30.20;68.40;;;;;;4943122;29;20035;-73
2023/06/09 11:58:12;;;;;;;22.77;9.32;;;30.20;67.80;;;;;;4954318;28;20031;-76
2023/06/09 12:00:43;;;;;;;20.20;8.93;;;30.30;67.60;;;;;;4954558;28;20031;-75
2023/06/09 12:03:09;;;;;;;14.63;8.60;;;30.40;67.50;;;;;;4954697;28;20479;-71
2023/06/09 12:05:36;;;;;;;15.35;8.98;;;30.60;67.90;;;;;;4954555;28;20098;-75
2023/06/09 12:08:02;;;;;;;17.45;8.77;;;30.60;67.50;;;;;;4954394;28;20043;-76
2023/06/09 12:10:28;;;;;;;16.27;7.75;;;30.60;67.30;;;;;;4954408;28;20027;-75
2023/06/09 12:12:56;;;;;;;13.98;7.93;;;30.60;66.90;;;;;;4949343;29;20040;-76
2023/06/09 12:15:23;;;;;;;13.27;7.45;;;30.60;66.10;;;;;;4954127;28;20038;-75
2023/06/09 12:17:51;;;;;;;16.30;7.90;;;30.60;65.50;;;;;;4950817;28;20031;-75
2023/06/09 12:20:29;;;;;;;14.68;7.95;;;30.70;65.30;;;;;;4950079;29;20023;-75
2023/06/09 12:22:59;;;;;;;16.27;7.90;;;30.80;64.70;;;;;;4941692;28;20079;-75
2023/06/09 12:25:31;;;;;;;13.40;8.07;;;30.90;64.60;;;;;;4947948;29;20043;-74
2023/06/09 12:28:30;;;;;;;12.52;7.90;;;31.00;64.70;;;;;;4954271;29;20020;-75
2023/06/09 12:31:06;;;;;;;13.82;7.70;;;31.10;63.60;;;;;;4963506;28;20046;-73
2023/06/09 12:33:31;;;;;;;13.25;7.28;;;31.10;62.80;;;;;;4955631;28;20027;-75
2023/06/09 12:36:09;;;;;;;12.45;7.43;;;31.20;62.20;;;;;;4955633;29;20031;-74
2023/06/09 12:38:46;;;;;;;11.73;7.32;;;31.20;60.60;;;;;;4958650;28;20000;-74
2023/06/09 12:41:16;;;;;;;11.50;7.00;;;31.30;60.40;;;;;;4956375;29;20035;-74